createdAt,value
2019-03-06T00:01:57.096Z,4.87
2019-03-06T00:04:26.522Z,4.73
2019-03-06T00:06:55.964Z,4.27
2019-03-06T00:09:25.506Z,4.33
2019-03-06T00:11:55.112Z,3.83
2019-03-06T00:14:24.535Z,4.27
2019-03-06T00:16:54.215Z,4.53
2019-03-06T00:19:23.762Z,3.80
2019-03-06T00:21:53.222Z,3.60
2019-03-06T00:24:22.654Z,4.20
2019-03-06T00:26:52.247Z,4.37
2019-03-06T00:29:21.880Z,4.23
2019-03-06T00:31:51.549Z,3.93
2019-03-06T00:34:20.895Z,4.03
2019-03-06T00:36:50.360Z,4.13
2019-03-06T00:39:19.760Z,4.37
2019-03-06T00:41:49.616Z,4.00
2019-03-06T00:44:19.148Z,3.80
2019-03-06T00:46:48.738Z,4.17
2019-03-06T00:49:18.092Z,3.77
2019-03-06T00:51:47.632Z,3.80
2019-03-06T00:54:17.088Z,4.03
2019-03-06T00:56:46.579Z,4.13
2019-03-06T00:59:16.038Z,3.63
2019-03-06T01:01:45.561Z,4.17
2019-03-06T01:04:14.978Z,4.47
2019-03-06T01:06:44.679Z,4.47
2019-03-06T01:09:15.160Z,4.30
2019-03-06T01:11:44.628Z,4.50
2019-03-06T01:14:14.054Z,3.77
2019-03-06T01:16:44.052Z,3.87
2019-03-06T01:19:13.462Z,4.00
2019-03-06T01:21:42.866Z,3.23
2019-03-06T01:24:12.739Z,3.87
2019-03-06T01:26:42.357Z,3.87
2019-03-06T01:29:11.771Z,3.93
2019-03-06T01:31:41.176Z,3.77
2019-03-06T01:34:14.917Z,3.73
2019-03-06T01:36:57.766Z,3.73
2019-03-06T01:39:31.783Z,3.60
2019-03-06T01:42:03.189Z,3.93
2019-03-06T01:44:37.366Z,3.83
2019-03-06T01:47:07.532Z,3.43
2019-03-06T01:49:36.884Z,4.20
2019-03-06T01:52:06.313Z,3.73
2019-03-06T01:54:35.962Z,3.40
2019-03-06T01:57:05.362Z,3.90
2019-03-06T01:59:35.109Z,4.20
2019-03-06T02:02:04.534Z,4.10
2019-03-06T02:04:34.032Z,3.57
2019-03-06T02:07:03.654Z,4.17
2019-03-06T02:09:33.501Z,3.70
2019-03-06T02:12:03.198Z,4.00
2019-03-06T02:14:32.535Z,3.87
2019-03-06T02:17:02.234Z,3.50
2019-03-06T02:19:31.851Z,4.03
2019-03-06T02:22:01.465Z,4.10
2019-03-06T02:24:30.839Z,3.80
2019-03-06T02:27:00.542Z,3.67
2019-03-06T02:29:30.219Z,3.80
2019-03-06T02:31:59.549Z,3.70
2019-03-06T02:34:30.693Z,3.83
2019-03-06T02:37:00.129Z,3.87
2019-03-06T02:39:29.603Z,3.30
2019-03-06T02:41:59.067Z,3.83
2019-03-06T02:44:28.436Z,3.67
2019-03-06T02:46:57.831Z,3.50
2019-03-06T02:49:27.478Z,3.97
2019-03-06T02:51:56.968Z,3.70
2019-03-06T02:54:26.397Z,4.17
2019-03-06T02:56:55.906Z,4.37
2019-03-06T03:02:28.535Z,3.97
2019-03-06T03:05:01.318Z,4.23
2019-03-06T03:07:30.739Z,3.90
2019-03-06T03:10:00.511Z,3.90
2019-03-06T03:12:30.201Z,4.47
2019-03-06T03:14:59.551Z,4.60
2019-03-06T03:17:28.955Z,3.70
2019-03-06T03:19:58.424Z,4.50
2019-03-06T03:22:27.905Z,4.53
2019-03-06T03:24:57.485Z,3.93
2019-03-06T03:27:26.920Z,4.67
2019-03-06T03:29:56.302Z,4.43
2019-03-06T03:32:25.730Z,4.70
2019-03-06T03:34:55.422Z,4.90
2019-03-06T03:37:24.791Z,5.30
2019-03-06T03:39:54.195Z,5.40
2019-03-06T03:42:23.526Z,5.30
2019-03-06T03:44:53.907Z,4.30
2019-03-06T03:47:23.245Z,3.93
2019-03-06T03:49:52.901Z,4.07
2019-03-06T03:52:22.302Z,4.50
2019-03-06T03:54:53.243Z,4.30
2019-03-06T03:57:22.803Z,4.37
2019-03-06T03:59:52.484Z,4.53
2019-03-06T04:02:21.947Z,4.40
2019-03-06T04:04:51.424Z,4.10
2019-03-06T04:07:20.996Z,4.17
2019-03-06T04:09:50.496Z,4.53
2019-03-06T04:12:20.956Z,4.70
2019-03-06T04:14:50.437Z,12.30
2019-03-06T04:17:19.966Z,7.63
2019-03-06T04:19:49.371Z,5.70
2019-03-06T04:22:18.967Z,5.77
2019-03-06T04:24:48.355Z,5.30
2019-03-06T04:27:17.750Z,5.23
2019-03-06T04:29:47.202Z,4.87
2019-03-06T04:32:16.588Z,5.00
2019-03-06T04:34:46.082Z,4.80
2019-03-06T04:37:15.753Z,5.07
2019-03-06T04:39:45.306Z,4.83
2019-03-06T04:42:14.752Z,5.23
2019-03-06T04:44:44.167Z,6.03
2019-03-06T04:47:13.782Z,5.37
2019-03-06T04:49:52.265Z,5.97
2019-03-06T04:52:14.219Z,6.17
2019-03-06T04:54:43.877Z,5.00
2019-03-06T04:57:13.432Z,5.03
2019-03-06T04:59:42.837Z,5.33
2019-03-06T05:02:12.402Z,5.57
2019-03-06T05:04:41.754Z,5.67
2019-03-06T05:07:11.246Z,6.47
2019-03-06T05:09:40.870Z,5.73
2019-03-06T05:12:10.485Z,3.63
2019-03-06T05:14:39.859Z,5.23
2019-03-06T05:17:10.986Z,5.73
2019-03-06T05:19:41.280Z,5.57
2019-03-06T05:22:10.903Z,6.07
2019-03-06T05:24:40.316Z,7.00
2019-03-06T05:27:10.679Z,5.30
2019-03-06T05:29:40.214Z,6.80
2019-03-06T05:32:24.303Z,6.57
2019-03-06T05:34:54.431Z,5.87
2019-03-06T05:37:43.082Z,6.17
2019-03-06T05:40:12.715Z,5.50
2019-03-06T05:42:43.081Z,7.07
2019-03-06T05:45:12.586Z,7.00
2019-03-06T05:47:41.981Z,6.90
2019-03-06T05:50:11.387Z,6.67
2019-03-06T05:52:40.840Z,7.07
2019-03-06T05:55:10.308Z,6.70
2019-03-06T05:57:41.219Z,3.43
2019-03-06T06:00:13.649Z,8.10
2019-03-06T06:02:43.230Z,7.30
2019-03-06T06:05:14.198Z,6.93
2019-03-06T06:07:43.790Z,7.57
2019-03-06T06:10:16.343Z,7.03
2019-03-06T06:12:45.839Z,7.40
2019-03-06T06:15:16.048Z,7.60
2019-03-06T06:17:45.452Z,7.40
2019-03-06T06:20:16.370Z,6.53
2019-03-06T06:22:49.878Z,6.97
2019-03-06T06:25:19.479Z,7.33
2019-03-06T06:27:48.917Z,7.13
2019-03-06T06:30:18.689Z,7.30
2019-03-06T06:32:48.161Z,6.87
2019-03-06T06:35:17.766Z,7.10
2019-03-06T06:37:48.182Z,6.43
2019-03-06T06:40:17.623Z,6.70
2019-03-06T06:42:47.100Z,6.70
2019-03-06T06:45:18.100Z,7.53
2019-03-06T06:48:13.184Z,7.27
2019-03-06T06:51:01.915Z,7.00
2019-03-06T06:53:34.557Z,7.27
2019-03-06T06:56:13.298Z,6.67
2019-03-06T06:59:00.458Z,5.07
2019-03-06T07:01:55.299Z,6.80
2019-03-06T07:04:50.543Z,6.30
2019-03-06T07:07:24.347Z,6.00
2019-03-06T07:10:00.944Z,7.00
2019-03-06T07:12:44.124Z,6.63
2019-03-06T07:15:15.443Z,6.90
2019-03-06T07:17:58.409Z,6.30
2019-03-06T07:20:35.737Z,6.33
2019-03-06T07:23:15.928Z,6.13
2019-03-06T07:26:04.902Z,3.37
2019-03-06T07:28:52.260Z,6.00
2019-03-06T07:31:35.099Z,5.97
2019-03-06T07:34:15.332Z,5.30
2019-03-06T07:36:46.389Z,4.80
2019-03-06T07:39:21.870Z,5.30
2019-03-06T07:42:11.077Z,5.87
2019-03-06T07:44:42.233Z,5.40
2019-03-06T07:47:21.624Z,5.70
2019-03-06T07:50:02.181Z,5.40
2019-03-06T07:52:38.245Z,4.60
2019-03-06T07:55:23.614Z,4.03
2019-03-06T07:58:30.564Z,4.73
2019-03-06T08:01:00.457Z,5.33
2019-03-06T08:03:31.917Z,5.13
2019-03-06T08:06:04.745Z,5.13
2019-03-06T08:12:27.688Z,4.57
2019-03-06T08:14:22.593Z,4.87
2019-03-06T08:17:00.894Z,4.97
2019-03-06T08:19:39.999Z,4.40
2019-03-06T08:22:14.293Z,4.67
2019-03-06T08:25:22.464Z,5.00
2019-03-06T08:27:47.910Z,4.87
2019-03-06T08:30:25.278Z,4.60
2019-03-06T08:32:57.131Z,4.90
2019-03-06T08:35:28.385Z,5.00
2019-03-06T08:37:59.407Z,3.23
2019-03-06T08:40:28.826Z,4.10
2019-03-06T08:42:58.631Z,4.57
2019-03-06T08:45:45.894Z,4.57
2019-03-06T08:48:19.977Z,4.07
2019-03-06T08:50:53.535Z,4.37
2019-03-06T08:53:24.804Z,4.43
2019-03-06T08:56:10.655Z,3.97
2019-03-06T08:58:54.333Z,5.07
2019-03-06T09:01:40.180Z,4.63
2019-03-06T09:04:25.192Z,4.77
2019-03-06T09:06:59.198Z,5.50
2019-03-06T09:09:36.660Z,4.70
2019-03-06T09:12:17.002Z,5.10
2019-03-06T09:14:48.332Z,5.20
2019-03-06T09:17:20.117Z,5.20
2019-03-06T09:19:51.313Z,4.83
2019-03-06T09:22:31.889Z,4.53
2019-03-06T09:25:11.973Z,4.67
2019-03-06T09:27:46.524Z,4.80
2019-03-06T09:30:34.139Z,4.50
2019-03-06T09:33:10.648Z,4.60
2019-03-06T09:35:41.669Z,5.20
2019-03-06T09:38:17.860Z,4.70
2019-03-06T09:41:04.443Z,4.57
2019-03-06T09:43:49.281Z,4.70
2019-03-06T09:46:20.809Z,4.73
2019-03-06T09:48:54.998Z,5.07
2019-03-06T09:51:41.203Z,4.90
2019-03-06T09:54:28.671Z,4.53
2019-03-06T09:57:11.392Z,4.47
2019-03-06T09:59:42.601Z,4.83
2019-03-06T10:02:16.492Z,4.97
2019-03-06T10:04:50.439Z,4.70
2019-03-06T10:07:21.768Z,5.23
2019-03-06T10:09:59.133Z,4.77
2019-03-06T10:12:31.117Z,4.43
2019-03-06T10:15:17.336Z,4.67
2019-03-06T10:17:51.154Z,4.20
2019-03-06T10:22:54.945Z,4.00
2019-03-06T10:25:30.088Z,3.60
2019-03-06T10:28:05.720Z,3.57
2019-03-06T10:30:27.730Z,3.37
2019-03-06T10:32:57.479Z,3.93
2019-03-06T10:35:27.062Z,3.33
2019-03-06T10:37:56.777Z,3.50
2019-03-06T10:40:26.558Z,3.77
2019-03-06T10:42:56.471Z,3.40
2019-03-06T10:45:26.200Z,3.37
2019-03-06T10:47:55.882Z,3.10
2019-03-06T10:52:56.931Z,3.37
2019-03-06T10:55:26.575Z,3.27
2019-03-06T10:57:56.427Z,3.67
2019-03-06T11:00:30.037Z,3.23
2019-03-06T11:02:59.797Z,2.67
2019-03-06T11:05:31.233Z,3.00
2019-03-06T11:08:01.323Z,3.00
2019-03-06T11:10:33.846Z,3.10
2019-03-06T11:13:09.630Z,2.93
2019-03-06T11:15:41.120Z,2.97
2019-03-06T11:18:10.986Z,3.03
2019-03-06T11:20:40.924Z,3.07
2019-03-06T11:23:11.525Z,3.10
2019-03-06T11:25:42.162Z,2.77
2019-03-06T11:28:13.328Z,2.93
2019-03-06T11:30:51.913Z,3.07
2019-03-06T11:33:24.066Z,2.97
2019-03-06T11:35:58.773Z,3.30
2019-03-06T11:38:28.509Z,3.20
2019-03-06T11:40:58.490Z,3.50
2019-03-06T11:43:28.250Z,3.70
2019-03-06T11:45:59.519Z,3.30
2019-03-06T11:48:29.889Z,3.27
2019-03-06T11:50:59.463Z,3.30
2019-03-06T11:53:29.200Z,3.10
2019-03-06T11:55:58.782Z,3.50
2019-03-06T11:58:28.730Z,3.10
2019-03-06T12:00:58.487Z,3.40
2019-03-06T12:03:28.708Z,3.20
2019-03-06T12:05:58.372Z,3.20
2019-03-06T12:08:31.870Z,2.83
2019-03-06T12:11:02.406Z,3.37
2019-03-06T12:13:32.031Z,3.20
2019-03-06T12:16:01.505Z,3.07
2019-03-06T12:18:31.898Z,3.10
2019-03-06T12:21:01.705Z,2.80
2019-03-06T12:23:31.495Z,2.77
2019-03-06T12:26:01.109Z,2.67
2019-03-06T12:28:30.529Z,2.50
2019-03-06T12:31:00.975Z,2.43
2019-03-06T12:33:30.471Z,2.67
2019-03-06T12:36:00.025Z,2.77
2019-03-06T12:38:29.531Z,2.70
2019-03-06T12:40:59.121Z,2.47
2019-03-06T12:43:28.669Z,2.40
2019-03-06T12:46:23.339Z,2.50
2019-03-06T12:48:55.840Z,2.30
2019-03-06T12:51:25.363Z,2.30
2019-03-06T12:53:54.783Z,2.40
2019-03-06T12:56:24.649Z,2.13
2019-03-06T12:58:54.042Z,2.30
2019-03-06T13:01:23.658Z,2.40
2019-03-06T13:03:53.061Z,2.20
2019-03-06T13:06:24.874Z,2.20
2019-03-06T13:08:56.304Z,2.20
2019-03-06T13:11:25.382Z,2.00
2019-03-06T13:13:55.033Z,2.30
2019-03-06T13:16:25.091Z,2.00
2019-03-06T13:18:54.674Z,1.90
2019-03-06T13:21:24.925Z,1.73
2019-03-06T13:23:55.306Z,1.77
2019-03-06T13:26:26.444Z,1.93
2019-03-06T13:28:57.592Z,1.63
2019-03-06T13:31:27.500Z,1.63
2019-03-06T13:33:59.675Z,1.70
2019-03-06T13:36:29.190Z,1.63
2019-03-06T13:39:05.949Z,1.50
2019-03-06T13:41:32.080Z,1.60
2019-03-06T13:44:02.220Z,1.30
2019-03-06T13:46:32.289Z,1.50
2019-03-06T13:49:06.757Z,1.30
2019-03-06T13:51:36.759Z,1.27
2019-03-06T13:54:06.739Z,1.47
2019-03-06T13:56:37.888Z,1.40
2019-03-06T13:59:07.952Z,1.43
2019-03-06T14:01:37.390Z,1.30
2019-03-06T14:04:07.030Z,1.43
2019-03-06T14:06:36.730Z,1.40
2019-03-06T14:09:07.861Z,1.40
2019-03-06T14:11:39.032Z,1.30
2019-03-06T14:14:08.819Z,1.20
2019-03-06T14:16:38.588Z,1.40
2019-03-06T14:19:08.132Z,1.30
2019-03-06T14:21:38.601Z,1.30
2019-03-06T14:24:08.295Z,1.37
2019-03-06T14:26:39.250Z,1.50
2019-03-06T14:29:08.971Z,1.40
2019-03-06T14:31:38.879Z,1.30
2019-03-06T14:34:08.500Z,1.30
2019-03-06T14:36:37.931Z,1.40
2019-03-06T14:39:14.082Z,1.30
2019-03-06T14:41:43.693Z,1.20
2019-03-06T14:44:13.360Z,1.17
2019-03-06T14:46:42.802Z,1.50
2019-03-06T14:49:12.728Z,2.17
2019-03-06T14:51:42.594Z,3.60
2019-03-06T14:54:12.629Z,4.03
2019-03-06T14:56:48.080Z,3.03
2019-03-06T14:59:17.606Z,4.47
2019-03-06T15:01:47.183Z,2.70
2019-03-06T15:04:16.839Z,2.10
2019-03-06T15:06:46.503Z,1.50
2019-03-06T15:09:24.175Z,1.90
2019-03-06T15:11:53.835Z,1.70
2019-03-06T15:14:23.292Z,1.57
2019-03-06T15:16:52.836Z,1.60
2019-03-06T15:19:22.914Z,1.50
2019-03-06T15:21:52.426Z,1.43
2019-03-06T15:24:23.079Z,1.40
2019-03-06T15:26:52.595Z,1.30
2019-03-06T15:29:22.481Z,1.37
2019-03-06T15:31:51.948Z,1.27
2019-03-06T15:34:21.621Z,1.50
2019-03-06T15:36:51.180Z,1.43
2019-03-06T15:39:28.619Z,1.50
2019-03-06T15:42:00.460Z,1.37
2019-03-06T15:44:30.187Z,1.40
2019-03-06T15:46:59.775Z,1.40
2019-03-06T15:49:29.761Z,1.23
2019-03-06T15:51:59.372Z,1.20
2019-03-06T15:54:28.895Z,1.50
2019-03-06T15:56:58.761Z,1.33
2019-03-06T15:59:28.252Z,1.50
2019-03-06T16:01:57.798Z,1.27
2019-03-06T16:04:27.295Z,1.60
2019-03-06T16:06:57.084Z,1.40
2019-03-06T16:09:26.954Z,1.57
2019-03-06T16:11:56.743Z,1.50
2019-03-06T16:14:26.349Z,1.70
2019-03-06T16:16:56.215Z,1.57
2019-03-06T16:19:25.720Z,1.47
2019-03-06T16:21:55.293Z,2.00
2019-03-06T16:24:25.050Z,1.50
2019-03-06T16:27:00.330Z,2.03
2019-03-06T16:29:30.230Z,1.70
2019-03-06T16:31:59.937Z,1.40
2019-03-06T16:34:29.430Z,1.93
2019-03-06T16:36:58.901Z,1.70
2019-03-06T16:39:28.312Z,2.70
2019-03-06T16:41:57.802Z,2.43
2019-03-06T16:44:27.278Z,1.80
2019-03-06T16:47:06.212Z,1.57
2019-03-06T16:49:28.001Z,1.60
2019-03-06T16:51:57.767Z,1.67
2019-03-06T16:54:27.541Z,1.67
2019-03-06T16:56:57.165Z,1.60
2019-03-06T16:59:26.731Z,1.60
2019-03-06T17:01:57.832Z,1.77
2019-03-06T17:04:27.616Z,1.70
2019-03-06T17:06:57.183Z,1.80
2019-03-06T17:09:26.726Z,1.50
2019-03-06T17:11:56.393Z,1.70
2019-03-06T17:14:26.002Z,5.03
2019-03-06T17:16:55.430Z,3.27
2019-03-06T17:19:25.457Z,2.40
2019-03-06T17:21:56.906Z,3.40
2019-03-06T17:24:26.607Z,4.50
2019-03-06T17:26:56.045Z,4.87
2019-03-06T17:29:25.660Z,4.47
2019-03-06T17:31:55.296Z,5.33
2019-03-06T17:34:24.894Z,5.70
2019-03-06T17:36:54.373Z,4.27
2019-03-06T17:39:23.876Z,3.60
2019-03-06T17:42:01.714Z,2.90
2019-03-06T17:44:32.226Z,2.43
2019-03-06T17:47:02.066Z,2.47
2019-03-06T17:49:31.832Z,2.77
2019-03-06T17:52:01.325Z,2.77
2019-03-06T17:54:31.989Z,2.57
2019-03-06T17:57:01.658Z,2.90
2019-03-06T17:59:31.839Z,3.40
2019-03-06T18:02:01.274Z,4.27
2019-03-06T18:04:31.202Z,7.93
2019-03-06T18:07:01.352Z,7.63
2019-03-06T18:09:31.213Z,4.00
2019-03-06T18:12:00.901Z,3.37
2019-03-06T18:14:30.393Z,3.40
2019-03-06T18:16:59.892Z,3.17
2019-03-06T18:19:29.285Z,3.33
2019-03-06T18:21:58.799Z,6.73
2019-03-06T18:24:28.250Z,4.20
2019-03-06T18:26:58.270Z,7.60
2019-03-06T18:29:27.799Z,4.17
2019-03-06T18:31:57.435Z,3.17
2019-03-06T18:34:28.131Z,3.00
2019-03-06T18:36:57.694Z,3.23
2019-03-06T18:39:28.772Z,2.70
2019-03-06T18:41:59.510Z,2.80
2019-03-06T18:44:29.163Z,2.60
2019-03-06T18:46:59.692Z,2.63
2019-03-06T18:49:29.851Z,2.03
2019-03-06T18:51:59.420Z,2.10
2019-03-06T18:54:37.937Z,3.23
2019-03-06T18:57:08.285Z,3.37
2019-03-06T18:59:37.747Z,3.80
2019-03-06T19:02:07.739Z,4.00
2019-03-06T19:04:37.310Z,3.37
2019-03-06T19:07:07.257Z,8.70
2019-03-06T19:09:36.834Z,3.80
2019-03-06T19:12:06.507Z,3.30
2019-03-06T19:14:42.420Z,3.23
2019-03-06T19:17:13.006Z,2.97
2019-03-06T19:19:42.821Z,2.30
2019-03-06T19:22:12.158Z,2.50
2019-03-06T19:24:41.868Z,2.10
2019-03-06T19:27:11.902Z,2.40
2019-03-06T19:29:41.845Z,2.60
2019-03-06T19:32:12.922Z,2.30
2019-03-06T19:34:42.931Z,2.73
2019-03-06T19:37:13.165Z,2.40
2019-03-06T19:39:43.994Z,2.53
2019-03-06T19:42:13.520Z,2.60
2019-03-06T19:44:42.944Z,2.47
2019-03-06T19:47:12.510Z,2.50
2019-03-06T19:49:42.370Z,2.17
2019-03-06T19:52:11.866Z,1.97
2019-03-06T19:54:41.613Z,2.00
2019-03-06T19:57:11.245Z,2.10
2019-03-06T19:59:40.630Z,1.97
2019-03-06T20:02:10.245Z,2.10
2019-03-06T20:04:39.923Z,1.87
2019-03-06T20:07:09.445Z,1.60
2019-03-06T20:09:39.020Z,1.90
2019-03-06T20:12:08.731Z,1.83
2019-03-06T20:14:39.408Z,1.97
2019-03-06T20:17:08.977Z,1.90
2019-03-06T20:19:38.439Z,1.97
2019-03-06T20:22:07.876Z,1.40
2019-03-06T20:24:37.607Z,1.50
2019-03-06T20:27:07.097Z,1.60
2019-03-06T20:29:36.582Z,1.53
2019-03-06T20:32:06.172Z,2.07
2019-03-06T20:34:35.606Z,1.77
2019-03-06T20:37:06.246Z,1.63
2019-03-06T20:39:35.667Z,1.80
2019-03-06T20:42:05.211Z,1.80
2019-03-06T20:44:34.886Z,1.60
2019-03-06T20:47:04.884Z,2.03
2019-03-06T20:49:34.371Z,1.70
2019-03-06T20:52:03.918Z,1.50
2019-03-06T20:54:33.353Z,1.30
2019-03-06T20:57:03.067Z,1.53
2019-03-06T20:59:32.862Z,1.60
2019-03-06T21:02:02.693Z,1.60
2019-03-06T21:04:32.443Z,1.60
2019-03-06T21:07:03.618Z,1.60
2019-03-06T21:09:33.272Z,1.47
2019-03-06T21:12:03.128Z,1.67
2019-03-06T21:14:34.061Z,1.23
2019-03-06T21:17:04.046Z,1.60
2019-03-06T21:19:33.695Z,1.60
2019-03-06T21:22:03.273Z,3.70
2019-03-06T21:24:32.791Z,1.60
2019-03-06T21:27:02.744Z,3.70
2019-03-06T21:29:32.811Z,3.80
2019-03-06T21:32:03.237Z,4.30
2019-03-06T21:34:33.826Z,3.80
2019-03-06T21:37:03.606Z,2.67
2019-03-06T21:39:34.921Z,4.47
2019-03-06T21:42:04.401Z,8.53
2019-03-06T21:44:35.062Z,3.60
2019-03-06T21:47:05.284Z,2.97
2019-03-06T21:49:35.404Z,2.87
2019-03-06T21:52:06.094Z,2.60
2019-03-06T21:54:35.659Z,2.70
2019-03-06T21:57:05.319Z,2.50
2019-03-06T21:59:34.751Z,2.33
2019-03-06T22:02:05.840Z,2.30
2019-03-06T22:04:36.414Z,2.43
2019-03-06T22:07:07.607Z,2.23
2019-03-06T22:09:37.441Z,2.37
2019-03-06T22:12:09.734Z,2.20
2019-03-06T22:14:39.780Z,2.10
2019-03-06T22:17:21.646Z,1.90
2019-03-06T22:19:52.633Z,2.00
2019-03-06T22:22:22.081Z,2.27
2019-03-06T22:24:51.493Z,1.93
2019-03-06T22:27:22.447Z,1.90
2019-03-06T22:29:52.558Z,1.90
2019-03-06T22:32:23.421Z,1.80
2019-03-06T22:34:53.629Z,1.77
2019-03-06T22:37:23.244Z,1.80
2019-03-06T22:39:52.652Z,1.70
2019-03-06T22:42:23.701Z,1.90
2019-03-06T22:44:53.335Z,1.80
2019-03-06T22:47:22.935Z,1.67
2019-03-06T22:49:52.497Z,1.80
2019-03-06T22:52:21.851Z,1.60
2019-03-06T22:54:51.478Z,1.70
2019-03-06T22:57:21.203Z,1.60
2019-03-06T22:59:51.029Z,1.70
2019-03-06T23:02:22.885Z,1.70
2019-03-06T23:04:53.883Z,1.70
2019-03-06T23:07:23.447Z,1.57
2019-03-06T23:09:53.050Z,1.60
2019-03-06T23:12:22.571Z,1.60
2019-03-06T23:14:52.401Z,1.37
2019-03-06T23:17:22.497Z,1.60
2019-03-06T23:19:52.692Z,1.60
2019-03-06T23:22:22.684Z,1.53
2019-03-06T23:24:52.189Z,1.57
2019-03-06T23:27:22.272Z,1.40
2019-03-06T23:29:51.672Z,1.63
2019-03-06T23:32:21.197Z,1.60
2019-03-06T23:34:50.613Z,1.73
2019-03-06T23:37:20.149Z,1.63
2019-03-06T23:39:49.512Z,1.60
2019-03-06T23:42:19.546Z,1.60
2019-03-06T23:44:48.950Z,1.43
2019-03-06T23:47:18.418Z,1.67
2019-03-06T23:49:48.299Z,1.80
2019-03-06T23:52:19.572Z,1.80
2019-03-06T23:54:48.983Z,2.10
2019-03-06T23:57:18.425Z,2.00
2019-03-06T23:59:48.237Z,1.83
